Time;durP1;ratioP1;P1;durP2;ratioP2;P2;SDS_P1;SDS_P2;PMS_P1;PMS_P2;Temp;Humidity;BMP_temperature;BMP_pressure;BME280_temperature;BME280_humidity;BME280_pressure;Samples;Min_cycle;Max_cycle;Signal;HPM_P1;HPM_P2
2023/09/03 00:00:37;;;;;;;3.05;1.52;;;22.10;99.90;;;;;;4247307;27;20043;-60
2023/09/03 00:02:39;;;;;;;2.87;1.40;;;22.10;99.90;;;;;;4246992;27;20047;-60
2023/09/03 00:04:41;;;;;;;5.32;1.75;;;22.10;99.90;;;;;;4254799;27;20521;-59
2023/09/03 00:06:45;;;;;;;4.05;1.65;;;22.10;99.90;;;;;;4245336;28;20069;-60
2023/09/03 00:08:48;;;;;;;6.50;1.42;;;22.00;99.90;;;;;;4264653;27;20580;-60
2023/09/03 00:10:51;;;;;;;4.32;1.55;;;22.00;99.90;;;;;;4264469;27;20122;-59
2023/09/03 00:12:53;;;;;;;4.13;1.58;;;22.00;99.90;;;;;;4264519;27;20054;-59
2023/09/03 00:14:55;;;;;;;2.92;1.35;;;22.00;99.90;;;;;;4264443;27;20039;-60
2023/09/03 00:16:57;;;;;;;5.05;1.42;;;22.00;99.90;;;;;;4250912;27;20143;-60
2023/09/03 00:18:59;;;;;;;3.25;1.70;;;22.00;99.90;;;;;;4247184;28;20073;-62
2023/09/03 00:21:03;;;;;;;4.45;1.67;;;21.90;99.90;;;;;;4247039;28;20413;-59
2023/09/03 00:23:07;;;;;;;5.20;1.48;;;22.00;99.90;;;;;;4247404;28;20442;-60
2023/09/03 00:25:09;;;;;;;2.97;1.40;;;22.00;99.90;;;;;;4247102;28;20047;-59
2023/09/03 00:27:11;;;;;;;1.77;1.20;;;21.90;99.90;;;;;;4246257;28;20039;-59
2023/09/03 00:29:13;;;;;;;4.28;1.55;;;21.90;99.90;;;;;;4247185;28;20104;-59
2023/09/03 00:31:15;;;;;;;4.55;1.70;;;21.90;99.90;;;;;;4246806;28;20043;-59
2023/09/03 00:33:17;;;;;;;2.83;1.50;;;21.90;99.90;;;;;;4247349;28;20104;-58
2023/09/03 00:35:20;;;;;;;2.50;1.63;;;21.90;99.90;;;;;;4247300;28;20040;-60
2023/09/03 00:37:23;;;;;;;3.95;1.50;;;21.90;99.90;;;;;;4246021;28;20054;-59
2023/09/03 00:39:26;;;;;;;4.55;1.58;;;21.90;99.90;;;;;;4247394;28;20043;-59
2023/09/03 00:41:29;;;;;;;4.35;1.60;;;21.80;99.90;;;;;;4247463;28;20055;-61
2023/09/03 00:43:31;;;;;;;8.18;1.73;;;21.90;99.90;;;;;;4247424;27;20074;-59
2023/09/03 00:45:33;;;;;;;5.18;2.00;;;21.80;99.90;;;;;;4228249;28;20521;-59
2023/09/03 00:47:36;;;;;;;3.35;1.70;;;21.80;99.90;;;;;;4228394;28;20036;-59
2023/09/03 00:49:41;;;;;;;3.72;1.83;;;21.80;99.90;;;;;;4247197;28;20051;-60
2023/09/03 00:51:43;;;;;;;4.50;1.65;;;21.80;99.90;;;;;;4247009;28;20130;-59
2023/09/03 00:53:48;;;;;;;2.55;1.40;;;21.80;99.90;;;;;;4246883;28;20070;-59
2023/09/03 00:55:52;;;;;;;4.20;1.77;;;21.80;99.90;;;;;;4246435;28;20043;-59
2023/09/03 00:57:55;;;;;;;2.15;1.13;;;21.80;99.90;;;;;;4246993;28;20104;-59
2023/09/03 00:59:58;;;;;;;3.10;1.55;;;21.80;99.90;;;;;;4247020;28;20109;-59
2023/09/03 01:02:00;;;;;;;2.47;1.30;;;21.80;99.90;;;;;;4247245;28;20427;-64
2023/09/03 01:04:02;;;;;;;2.78;1.60;;;21.80;99.90;;;;;;4249891;27;20138;-59
2023/09/03 01:06:06;;;;;;;3.33;1.55;;;21.80;99.90;;;;;;4266315;27;20053;-59
2023/09/03 01:08:08;;;;;;;2.22;1.40;;;21.80;99.90;;;;;;4267284;27;20077;-59
2023/09/03 01:10:10;;;;;;;5.57;1.63;;;21.80;99.90;;;;;;4267203;27;20122;-59
2023/09/03 01:12:19;;;;;;;3.60;1.60;;;21.80;99.90;;;;;;4266141;27;20046;-58
2023/09/03 01:14:28;;;;;;;3.15;1.42;;;21.80;99.90;;;;;;4267243;27;20043;-59
2023/09/03 01:16:51;;;;;;;2.92;1.60;;;21.70;99.90;;;;;;4257700;27;20035;-59
2023/09/03 01:18:56;;;;;;;2.53;1.58;;;21.80;99.90;;;;;;4231716;28;20061;-59
2023/09/03 01:21:18;;;;;;;6.20;1.35;;;21.70;99.90;;;;;;4249701;27;20063;-59
2023/09/03 01:23:32;;;;;;;4.15;1.60;;;21.70;99.90;;;;;;4249934;27;20404;-59
2023/09/03 01:25:53;;;;;;;3.00;1.58;;;21.70;99.90;;;;;;4249954;27;20047;-60
2023/09/03 01:28:19;;;;;;;3.38;1.60;;;21.70;99.90;;;;;;4249947;27;20463;-63
2023/09/03 01:30:22;;;;;;;1.58;1.15;;;21.70;99.90;;;;;;4250356;27;20043;-60
2023/09/03 01:32:25;;;;;;;4.60;1.60;;;21.70;99.90;;;;;;4232263;28;20544;-63
2023/09/03 01:34:28;;;;;;;3.70;1.98;;;21.70;99.90;;;;;;4250315;27;20039;-62
2023/09/03 01:36:33;;;;;;;2.28;1.50;;;21.70;99.90;;;;;;4248954;27;20082;-60
2023/09/03 01:38:35;;;;;;;3.83;1.63;;;21.70;99.90;;;;;;4249581;27;20050;-59
2023/09/03 01:40:38;;;;;;;2.90;1.60;;;21.70;99.90;;;;;;4249600;27;20061;-59
2023/09/03 01:42:40;;;;;;;2.75;1.65;;;21.70;99.90;;;;;;4249409;27;20035;-59
2023/09/03 01:44:44;;;;;;;2.40;1.55;;;21.70;99.90;;;;;;4249294;27;20395;-57
2023/09/03 01:46:49;;;;;;;2.15;1.40;;;21.60;99.90;;;;;;4248656;27;20047;-58
2023/09/03 01:49:03;;;;;;;2.95;1.48;;;21.60;99.90;;;;;;4249407;27;20047;-58
2023/09/03 01:51:14;;;;;;;6.00;1.73;;;21.60;99.90;;;;;;4249442;27;20047;-60
2023/09/03 01:53:21;;;;;;;3.03;1.55;;;21.50;99.90;;;;;;4249349;27;20122;-58
2023/09/03 01:55:25;;;;;;;4.53;1.55;;;21.50;99.90;;;;;;4249508;27;20078;-59
2023/09/03 01:57:33;;;;;;;3.28;1.85;;;21.50;99.90;;;;;;4248295;27;20043;-58
2023/09/03 01:59:40;;;;;;;4.30;1.40;;;21.40;99.90;;;;;;4248968;27;20121;-58
2023/09/03 02:01:45;;;;;;;2.92;1.58;;;21.40;99.90;;;;;;4249448;27;20476;-59
2023/09/03 02:03:50;;;;;;;2.08;1.38;;;21.40;99.90;;;;;;4249366;27;20044;-59
2023/09/03 02:05:53;;;;;;;5.07;1.80;;;21.40;99.90;;;;;;4248377;27;20047;-59
2023/09/03 02:07:55;;;;;;;4.53;1.65;;;21.40;99.90;;;;;;4248671;27;20135;-60
2023/09/03 02:09:57;;;;;;;4.38;2.00;;;21.40;99.90;;;;;;4248983;27;20047;-59
2023/09/03 02:11:59;;;;;;;4.18;1.90;;;21.40;99.90;;;;;;4249140;27;20073;-59
2023/09/03 02:14:01;;;;;;;4.95;1.92;;;21.30;99.90;;;;;;4248796;27;20047;-58
2023/09/03 02:16:04;;;;;;;6.88;2.00;;;21.30;99.90;;;;;;4246977;27;20074;-59
2023/09/03 02:18:07;;;;;;;4.13;2.15;;;21.30;99.90;;;;;;4248741;27;20112;-59
2023/09/03 02:20:10;;;;;;;6.43;2.05;;;21.30;99.90;;;;;;4248906;27;20070;-60
2023/09/03 02:22:12;;;;;;;4.38;2.22;;;21.20;99.90;;;;;;4248735;27;20377;-59
2023/09/03 02:24:15;;;;;;;3.28;1.88;;;21.10;99.90;;;;;;4249062;27;20122;-59
2023/09/03 02:26:18;;;;;;;1.77;1.48;;;21.10;99.90;;;;;;4247931;27;20044;-59
2023/09/03 02:28:20;;;;;;;4.18;1.73;;;21.10;99.90;;;;;;4248214;27;20126;-59
2023/09/03 02:30:22;;;;;;;7.07;2.00;;;21.10;99.90;;;;;;4249005;27;20408;-58
2023/09/03 02:32:24;;;;;;;3.13;1.90;;;21.20;99.90;;;;;;4248774;27;20070;-58
2023/09/03 02:34:27;;;;;;;5.50;1.65;;;21.10;99.90;;;;;;4248757;27;20053;-58
2023/09/03 02:36:31;;;;;;;5.05;1.60;;;21.10;99.90;;;;;;4247966;27;20050;-58
2023/09/03 02:38:33;;;;;;;4.25;1.67;;;21.10;99.90;;;;;;4248622;27;20055;-59
2023/09/03 02:40:35;;;;;;;2.42;1.50;;;21.10;99.90;;;;;;4248611;27;20049;-59
2023/09/03 02:42:37;;;;;;;4.82;1.40;;;21.00;99.90;;;;;;4248141;27;20088;-59
2023/09/03 02:44:39;;;;;;;2.75;1.20;;;21.00;99.90;;;;;;4258549;27;20121;-59
2023/09/03 02:46:41;;;;;;;2.53;1.90;;;21.00;99.90;;;;;;4264877;27;20419;-59
2023/09/03 02:48:43;;;;;;;3.58;1.88;;;21.00;99.90;;;;;;4265502;27;20051;-58
2023/09/03 02:50:47;;;;;;;3.33;1.30;;;21.00;99.90;;;;;;4265544;27;20050;-60
2023/09/03 02:52:49;;;;;;;3.57;1.67;;;20.90;99.90;;;;;;4265505;27;20051;-58
2023/09/03 02:54:52;;;;;;;4.00;1.73;;;20.90;99.90;;;;;;4265538;27;20050;-62
2023/09/03 02:56:54;;;;;;;4.80;1.45;;;20.90;99.90;;;;;;4264310;27;20095;-58
2023/09/03 02:58:56;;;;;;;5.43;1.83;;;20.90;99.90;;;;;;4265623;27;20061;-59
2023/09/03 03:01:03;;;;;;;3.92;1.52;;;20.90;99.90;;;;;;4265422;27;20482;-58
2023/09/03 03:03:06;;;;;;;4.70;1.70;;;20.90;99.90;;;;;;4247046;27;20071;-57
2023/09/03 03:05:09;;;;;;;3.28;1.70;;;20.90;99.90;;;;;;4265099;27;20043;-58
2023/09/03 03:07:12;;;;;;;2.40;1.17;;;20.90;99.90;;;;;;4264520;27;20046;-58
2023/09/03 03:09:14;;;;;;;3.22;1.30;;;20.90;99.90;;;;;;4265333;27;20046;-58
2023/09/03 03:11:17;;;;;;;3.28;1.67;;;20.90;99.90;;;;;;4265273;27;20074;-59
2023/09/03 03:13:19;;;;;;;3.25;1.50;;;20.90;99.90;;;;;;4265459;27;20050;-58
2023/09/03 03:15:21;;;;;;;2.25;1.52;;;20.90;99.90;;;;;;4265313;27;20909;-58
2023/09/03 03:17:23;;;;;;;5.05;1.70;;;20.90;99.90;;;;;;4248375;27;20534;-58
2023/09/03 03:19:25;;;;;;;2.88;1.40;;;20.90;99.90;;;;;;4248223;27;20043;-60
2023/09/03 03:21:27;;;;;;;3.08;1.42;;;20.90;99.90;;;;;;4248023;27;20047;-58
2023/09/03 03:23:31;;;;;;;4.20;1.60;;;20.90;99.90;;;;;;4248056;27;20542;-58
2023/09/03 03:25:33;;;;;;;3.33;1.88;;;20.80;99.90;;;;;;4248036;27;20142;-58
2023/09/03 03:27:37;;;;;;;7.72;2.15;;;20.80;99.90;;;;;;4246776;27;20047;-58
2023/09/03 03:29:39;;;;;;;2.95;1.65;;;20.80;99.90;;;;;;4248233;27;20046;-58
2023/09/03 03:31:45;;;;;;;4.50;1.58;;;20.80;99.90;;;;;;4248024;27;20126;-58
2023/09/03 03:33:47;;;;;;;3.33;1.73;;;20.70;99.90;;;;;;4248020;27;20050;-59
2023/09/03 03:35:49;;;;;;;3.78;1.60;;;20.80;99.90;;;;;;4247940;27;20050;-58
2023/09/03 03:37:51;;;;;;;2.03;1.55;;;20.70;99.90;;;;;;4247074;27;20043;-59
2023/09/03 03:39:55;;;;;;;3.67;1.70;;;20.70;99.90;;;;;;4247800;27;20055;-66
2023/09/03 03:41:57;;;;;;;1.90;1.58;;;20.70;99.90;;;;;;4247663;27;20043;-60
2023/09/03 03:43:59;;;;;;;4.88;1.50;;;20.70;99.90;;;;;;4247816;27;20047;-59
2023/09/03 03:46:01;;;;;;;4.20;1.83;;;20.70;99.90;;;;;;4247634;27;20074;-58
2023/09/03 03:48:04;;;;;;;4.15;2.03;;;20.70;99.90;;;;;;4246797;27;20043;-58
2023/09/03 03:50:07;;;;;;;3.58;1.90;;;20.60;99.90;;;;;;4247846;27;20412;-58
2023/09/03 03:52:09;;;;;;;4.28;1.88;;;20.60;99.90;;;;;;4247433;27;20103;-58
2023/09/03 03:54:11;;;;;;;6.05;2.20;;;20.50;99.90;;;;;;4247304;27;20047;-58
2023/09/03 03:56:14;;;;;;;2.83;1.80;;;20.50;99.90;;;;;;4247191;27;20047;-58
2023/09/03 03:58:16;;;;;;;2.17;1.40;;;20.50;99.90;;;;;;4246992;27;20039;-57
2023/09/03 04:00:19;;;;;;;3.08;1.77;;;20.50;99.90;;;;;;4247656;27;20046;-58
2023/09/03 04:02:21;;;;;;;3.92;2.10;;;20.50;99.90;;;;;;4247539;27;20043;-58
2023/09/03 04:04:23;;;;;;;5.70;2.15;;;20.40;99.90;;;;;;4252332;27;20461;-58
2023/09/03 04:06:27;;;;;;;3.35;2.08;;;20.40;99.90;;;;;;4263604;27;20057;-58
2023/09/03 04:08:31;;;;;;;7.05;2.38;;;20.40;99.90;;;;;;4264427;27;20047;-58
2023/09/03 04:10:33;;;;;;;7.72;2.40;;;20.40;99.90;;;;;;4264566;27;20401;-58
2023/09/03 04:12:36;;;;;;;3.28;1.90;;;20.30;99.90;;;;;;4264310;27;20046;-56
2023/09/03 04:14:39;;;;;;;4.10;1.98;;;20.30;99.90;;;;;;4264655;27;20513;-59
2023/09/03 04:16:41;;;;;;;2.20;2.00;;;20.30;99.90;;;;;;4253972;27;20214;-58
2023/09/03 04:18:44;;;;;;;4.03;1.80;;;20.30;99.90;;;;;;4247104;28;20042;-60
2023/09/03 04:20:46;;;;;;;8.38;2.20;;;20.40;99.90;;;;;;4247369;28;20069;-60
2023/09/03 04:22:48;;;;;;;4.25;1.90;;;20.40;99.90;;;;;;4247546;28;20071;-56
2023/09/03 04:24:50;;;;;;;3.25;1.88;;;20.30;99.90;;;;;;4247029;28;20079;-64
2023/09/03 04:26:52;;;;;;;3.60;1.83;;;20.40;99.90;;;;;;4247224;28;20441;-59
2023/09/03 04:28:55;;;;;;;3.15;1.75;;;20.30;99.90;;;;;;4248198;28;20048;-60
2023/09/03 04:31:00;;;;;;;4.93;2.22;;;20.30;99.90;;;;;;4248110;28;20044;-56
2023/09/03 04:33:02;;;;;;;;;;;20.30;99.90;;;;;;4248035;28;20054;-59
2023/09/03 04:35:06;;;;;;;6.40;2.17;;;20.30;99.90;;;;;;4247208;28;20414;-58
2023/09/03 04:37:08;;;;;;;5.18;1.85;;;20.30;99.90;;;;;;4246391;28;20104;-56
2023/09/03 04:39:11;;;;;;;4.82;2.97;;;20.30;99.90;;;;;;4248445;27;20054;-58
2023/09/03 04:41:13;;;;;;;2.95;1.63;;;20.20;99.90;;;;;;4250560;27;20054;-58
2023/09/03 04:43:17;;;;;;;4.50;2.17;;;20.20;99.90;;;;;;4250379;27;20385;-58
2023/09/03 04:45:21;;;;;;;4.80;1.88;;;20.30;99.90;;;;;;4247936;27;20098;-59
2023/09/03 04:47:23;;;;;;;6.05;2.42;;;20.30;99.90;;;;;;4266511;27;20049;-59
2023/09/03 04:49:25;;;;;;;3.28;1.80;;;20.30;99.90;;;;;;4267435;27;20038;-59
2023/09/03 04:51:27;;;;;;;5.47;2.13;;;20.30;99.90;;;;;;4267317;27;20502;-59
2023/09/03 04:53:29;;;;;;;6.90;2.08;;;20.30;99.90;;;;;;4267066;27;20077;-59
2023/09/03 04:55:31;;;;;;;3.17;1.98;;;20.30;99.90;;;;;;4267374;27;20047;-59
2023/09/03 04:57:33;;;;;;;2.28;1.52;;;20.30;99.90;;;;;;4266402;27;20453;-59
2023/09/03 04:59:36;;;;;;;4.75;2.13;;;20.30;99.90;;;;;;4267457;27;20137;-59
2023/09/03 05:01:42;;;;;;;7.20;2.28;;;20.20;99.90;;;;;;4248846;27;20071;-58
2023/09/03 05:03:44;;;;;;;3.67;1.85;;;20.20;99.90;;;;;;4240151;27;20047;-59
2023/09/03 05:05:47;;;;;;;6.38;2.50;;;20.20;99.90;;;;;;4266717;27;20123;-58
2023/09/03 05:07:49;;;;;;;6.57;1.95;;;20.20;99.90;;;;;;4266041;27;20545;-58
2023/09/03 05:09:52;;;;;;;6.78;1.70;;;20.20;99.90;;;;;;4267150;27;20047;-58
2023/09/03 05:11:54;;;;;;;3.83;2.15;;;20.20;99.90;;;;;;4267335;27;20042;-59
2023/09/03 05:13:56;;;;;;;4.60;1.80;;;20.30;99.90;;;;;;4267287;27;20396;-58
2023/09/03 05:15:58;;;;;;;3.63;1.80;;;20.30;99.90;;;;;;4263379;27;20067;-59
2023/09/03 05:18:01;;;;;;;3.75;2.13;;;20.30;99.90;;;;;;4249302;27;20120;-58
2023/09/03 05:20:05;;;;;;;3.63;1.60;;;20.40;99.90;;;;;;4249764;27;20054;-58
2023/09/03 05:22:07;;;;;;;4.43;2.10;;;20.30;99.90;;;;;;4249398;27;20039;-58
2023/09/03 05:24:12;;;;;;;2.85;1.90;;;20.40;99.90;;;;;;4249952;27;20047;-58
2023/09/03 05:26:14;;;;;;;4.03;2.35;;;20.30;99.90;;;;;;4250167;27;20086;-59
2023/09/03 05:28:16;;;;;;;4.63;2.00;;;20.30;99.90;;;;;;4249532;27;20058;-59
2023/09/03 05:30:19;;;;;;;4.25;2.17;;;20.40;99.90;;;;;;4249897;27;20043;-59
2023/09/03 05:32:22;;;;;;;6.57;2.60;;;20.30;99.90;;;;;;4249787;27;20043;-58
2023/09/03 05:34:25;;;;;;;5.25;2.15;;;20.30;99.90;;;;;;4249953;27;20043;-63
2023/09/03 05:36:28;;;;;;;4.55;2.45;;;20.30;99.90;;;;;;4249326;27;20075;-59
2023/09/03 05:38:30;;;;;;;5.05;2.10;;;20.30;99.90;;;;;;4230822;28;20074;-58
2023/09/03 05:40:32;;;;;;;5.38;2.40;;;20.30;99.90;;;;;;4249571;27;20476;-58
2023/09/03 05:42:34;;;;;;;4.53;2.40;;;20.30;99.90;;;;;;4249729;27;20040;-58
2023/09/03 05:44:37;;;;;;;9.27;2.58;;;20.30;99.90;;;;;;4249532;27;20047;-59
2023/09/03 05:46:39;;;;;;;3.75;2.30;;;20.20;99.90;;;;;;4247665;27;20118;-59
2023/09/03 05:48:41;;;;;;;5.25;2.22;;;20.20;99.90;;;;;;4249312;27;20058;-59
2023/09/03 05:50:44;;;;;;;2.13;1.90;;;20.20;99.90;;;;;;4249188;27;20053;-59
2023/09/03 05:52:46;;;;;;;3.80;2.28;;;20.20;99.90;;;;;;4249573;27;20043;-59
2023/09/03 05:54:48;;;;;;;4.40;2.05;;;20.20;99.90;;;;;;4249395;27;20096;-58
2023/09/03 05:56:50;;;;;;;5.68;2.10;;;20.30;99.90;;;;;;4248717;27;20054;-58
2023/09/03 05:58:52;;;;;;;4.70;2.10;;;20.30;99.90;;;;;;4249371;27;20063;-59
2023/09/03 06:00:54;;;;;;;4.05;1.90;;;20.30;99.90;;;;;;4249237;27;20459;-59
2023/09/03 06:02:56;;;;;;;10.63;2.80;;;20.30;99.90;;;;;;4249154;27;20059;-58
2023/09/03 06:04:58;;;;;;;3.83;2.45;;;20.20;99.90;;;;;;4258771;27;20449;-58
2023/09/03 06:07:04;;;;;;;5.53;2.10;;;20.20;99.90;;;;;;4265569;27;20431;-59
2023/09/03 06:09:06;;;;;;;5.55;2.50;;;20.20;99.90;;;;;;4266069;27;20100;-58
2023/09/03 06:11:08;;;;;;;4.43;2.20;;;20.20;99.90;;;;;;4248085;27;20050;-59
2023/09/03 06:13:11;;;;;;;2.47;1.98;;;20.20;99.90;;;;;;4266195;27;20042;-59
2023/09/03 06:15:13;;;;;;;5.15;2.17;;;20.10;99.90;;;;;;4266382;27;20070;-58
2023/09/03 06:17:15;;;;;;;3.47;2.30;;;20.20;99.90;;;;;;4250604;27;20040;-59
2023/09/03 06:19:17;;;;;;;4.03;2.25;;;20.10;99.90;;;;;;4248634;27;20134;-58
2023/09/03 06:21:19;;;;;;;3.78;2.03;;;20.10;99.90;;;;;;4248745;27;20502;-58
2023/09/03 06:23:23;;;;;;;3.72;2.00;;;20.20;99.90;;;;;;4248828;27;20075;-58
2023/09/03 06:25:25;;;;;;;3.85;2.05;;;20.20;99.90;;;;;;4248869;27;20050;-58
2023/09/03 06:27:27;;;;;;;3.85;2.17;;;20.20;99.90;;;;;;4247912;27;20047;-59
2023/09/03 06:29:29;;;;;;;5.93;2.10;;;20.30;99.90;;;;;;4248856;27;20043;-58
2023/09/03 06:31:31;;;;;;;5.50;2.05;;;20.20;99.90;;;;;;4248875;27;20047;-58
2023/09/03 06:33:34;;;;;;;3.17;1.98;;;20.30;99.90;;;;;;4248570;27;20454;-55
2023/09/03 06:35:36;;;;;;;6.28;2.25;;;20.30;99.90;;;;;;4248860;27;20043;-56
2023/09/03 06:37:39;;;;;;;4.55;2.35;;;20.40;99.90;;;;;;4247928;27;20073;-56
2023/09/03 06:39:42;;;;;;;4.63;2.05;;;20.40;99.90;;;;;;4248617;27;20126;-57
2023/09/03 06:41:44;;;;;;;7.00;2.58;;;20.40;99.90;;;;;;4248690;27;20472;-57
2023/09/03 06:43:46;;;;;;;4.55;2.08;;;20.40;99.90;;;;;;4248787;27;20039;-56
2023/09/03 06:45:49;;;;;;;4.47;2.20;;;20.50;99.90;;;;;;4248417;27;20051;-56
2023/09/03 06:47:51;;;;;;;6.88;2.50;;;20.50;99.90;;;;;;4247822;27;20137;-57
2023/09/03 06:49:53;;;;;;;3.17;1.75;;;20.50;99.90;;;;;;4248200;27;20074;-56
2023/09/03 06:51:55;;;;;;;4.13;2.03;;;20.50;99.90;;;;;;4248427;27;20039;-56
2023/09/03 06:53:59;;;;;;;4.95;2.20;;;20.50;99.90;;;;;;4248567;27;20043;-59
2023/09/03 06:56:03;;;;;;;3.90;2.10;;;20.50;99.90;;;;;;4248601;27;20055;-58
2023/09/03 06:58:05;;;;;;;5.43;2.15;;;20.50;99.90;;;;;;4247479;27;20560;-59
2023/09/03 07:00:09;;;;;;;4.38;1.80;;;20.50;99.90;;;;;;4248437;27;20450;-60
2023/09/03 07:02:12;;;;;;;3.03;1.95;;;20.50;99.90;;;;;;4246874;27;20057;-58
2023/09/03 07:04:14;;;;;;;7.63;2.30;;;20.60;99.90;;;;;;4251299;27;20038;-59
2023/09/03 07:06:16;;;;;;;3.95;2.00;;;20.70;99.90;;;;;;4265678;27;20445;-59
2023/09/03 07:08:18;;;;;;;5.10;1.90;;;20.70;99.90;;;;;;4264202;27;20042;-59
2023/09/03 07:10:21;;;;;;;3.88;1.92;;;20.70;99.90;;;;;;4246993;27;20099;-57
2023/09/03 07:12:25;;;;;;;4.15;2.45;;;20.70;99.90;;;;;;4265696;27;20050;-58
2023/09/03 07:14:30;;;;;;;4.35;2.00;;;20.80;99.90;;;;;;4265421;27;20040;-60
2023/09/03 07:16:32;;;;;;;3.72;1.92;;;20.80;99.90;;;;;;4256895;27;20134;-59
2023/09/03 07:18:34;;;;;;;4.85;1.95;;;20.90;99.90;;;;;;4246939;27;20078;-59
2023/09/03 07:20:36;;;;;;;2.78;1.90;;;20.90;99.90;;;;;;4247796;27;20412;-61
2023/09/03 07:22:40;;;;;;;3.58;1.70;;;20.90;99.90;;;;;;4248074;27;20039;-58
2023/09/03 07:24:42;;;;;;;2.15;1.83;;;21.00;99.90;;;;;;4248131;27;20063;-59
2023/09/03 07:26:44;;;;;;;5.63;2.00;;;21.00;99.90;;;;;;4247951;27;20043;-59
2023/09/03 07:28:48;;;;;;;4.50;1.92;;;21.00;99.90;;;;;;4247122;27;20146;-59
2023/09/03 07:30:50;;;;;;;3.40;1.80;;;21.10;99.90;;;;;;4248010;27;20050;-58
2023/09/03 07:32:52;;;;;;;5.10;1.88;;;21.10;99.90;;;;;;4247676;27;20050;-59
2023/09/03 07:34:54;;;;;;;4.78;1.98;;;21.20;99.90;;;;;;4247951;27;20492;-61
2023/09/03 07:36:56;;;;;;;5.00;1.92;;;21.30;99.90;;;;;;4247577;27;20470;-59
2023/09/03 07:38:58;;;;;;;3.05;1.70;;;21.40;99.90;;;;;;4247602;27;20057;-59
2023/09/03 07:41:01;;;;;;;3.05;1.80;;;21.50;99.90;;;;;;4247903;27;20051;-59
2023/09/03 07:43:04;;;;;;;3.95;1.63;;;21.60;99.90;;;;;;4248010;27;20063;-59
2023/09/03 07:45:08;;;;;;;4.25;1.70;;;21.70;99.90;;;;;;4247501;27;20484;-59
2023/09/03 07:47:10;;;;;;;;;;;21.90;99.90;;;;;;4247760;27;20047;-60
2023/09/03 07:49:12;;;;;;;4.40;1.67;;;22.00;99.90;;;;;;4248485;27;19972;-61
2023/09/03 07:51:16;;;;;;;2.65;1.90;;;22.00;99.90;;;;;;4248373;27;20043;-64
2023/09/03 07:53:19;;;;;;;2.92;1.55;;;22.20;99.90;;;;;;4248254;27;20043;-59
2023/09/03 07:55:21;;;;;;;3.42;1.80;;;22.30;99.90;;;;;;4247676;27;20055;-61
2023/09/03 07:57:23;;;;;;;3.20;1.55;;;22.40;99.90;;;;;;4246504;27;20046;-58
2023/09/03 07:59:26;;;;;;;4.78;1.73;;;22.50;99.90;;;;;;4229375;28;20580;-60
2023/09/03 08:01:29;;;;;;;4.15;1.80;;;22.60;99.90;;;;;;4247304;27;20050;-59
2023/09/03 08:03:35;;;;;;;2.75;1.30;;;22.70;99.90;;;;;;4249735;27;20400;-70
2023/09/03 08:05:37;;;;;;;2.47;1.40;;;22.90;99.90;;;;;;4263249;27;20141;-59
2023/09/03 08:07:40;;;;;;;2.58;1.50;;;23.00;99.90;;;;;;4263985;27;20039;-62
2023/09/03 08:09:42;;;;;;;3.40;1.48;;;23.10;99.90;;;;;;4266813;27;20046;-62
2023/09/03 08:11:44;;;;;;;3.05;1.42;;;23.10;99.90;;;;;;4265675;27;20457;-57
2023/09/03 08:13:51;;;;;;;2.63;1.40;;;23.20;99.90;;;;;;4266397;27;20066;-58
2023/09/03 08:15:53;;;;;;;3.28;1.38;;;23.40;99.90;;;;;;4266571;27;20070;-59
2023/09/03 08:17:57;;;;;;;3.85;1.50;;;23.40;99.90;;;;;;4252867;27;20053;-57
2023/09/03 08:19:59;;;;;;;3.00;1.30;;;23.50;99.90;;;;;;4253442;27;20207;-58
2023/09/03 08:22:03;;;;;;;2.55;1.52;;;23.70;99.90;;;;;;4253925;27;20051;-56
2023/09/03 08:24:06;;;;;;;2.03;1.55;;;23.80;99.90;;;;;;4254536;27;20043;-58
2023/09/03 08:26:08;;;;;;;1.88;1.35;;;23.90;99.90;;;;;;4253312;27;20131;-60
2023/09/03 08:28:10;;;;;;;4.60;1.60;;;23.90;99.90;;;;;;4252995;27;20096;-58
2023/09/03 08:30:13;;;;;;;3.33;1.65;;;24.00;99.70;;;;;;4253529;27;20112;-58
2023/09/03 08:32:15;;;;;;;4.35;1.20;;;24.00;99.70;;;;;;4253741;27;20111;-57
2023/09/03 08:34:18;;;;;;;6.60;2.00;;;24.10;99.50;;;;;;4253542;27;20051;-57
2023/09/03 08:36:21;;;;;;;5.25;1.45;;;24.20;99.40;;;;;;4253708;27;20051;-61
2023/09/03 08:38:25;;;;;;;5.93;1.40;;;24.20;99.10;;;;;;4253003;27;20050;-61
2023/09/03 08:40:28;;;;;;;5.40;1.48;;;24.30;99.10;;;;;;4254421;27;20467;-60
2023/09/03 08:42:31;;;;;;;3.88;1.60;;;24.40;98.60;;;;;;4254039;27;20039;-57
2023/09/03 08:44:36;;;;;;;3.25;1.38;;;24.40;98.60;;;;;;4253393;27;20081;-57
2023/09/03 08:46:41;;;;;;;3.13;1.30;;;24.50;98.50;;;;;;4235429;28;20048;-62
2023/09/03 08:48:44;;;;;;;1.80;1.30;;;24.60;98.60;;;;;;4252551;27;20047;-61
2023/09/03 08:50:52;;;;;;;2.15;1.60;;;24.60;98.20;;;;;;4251163;27;20122;-57
2023/09/03 08:52:55;;;;;;;6.10;1.48;;;24.70;98.20;;;;;;4251293;27;20051;-58
2023/09/03 08:55:00;;;;;;;3.53;1.40;;;24.70;98.10;;;;;;4251143;27;20074;-58
2023/09/03 08:57:04;;;;;;;3.83;1.58;;;24.80;98.00;;;;;;4250876;27;20126;-57
2023/09/03 08:59:06;;;;;;;4.55;2.00;;;24.90;97.40;;;;;;4231336;28;20452;-58
2023/09/03 09:01:12;;;;;;;3.00;1.65;;;24.90;97.60;;;;;;4250775;27;20126;-58
2023/09/03 09:03:16;;;;;;;6.90;1.70;;;24.90;97.50;;;;;;4250907;27;20493;-58
2023/09/03 09:05:19;;;;;;;7.63;1.90;;;25.00;97.60;;;;;;4263543;27;20042;-58
2023/09/03 09:07:22;;;;;;;3.85;1.55;;;25.10;97.40;;;;;;4268508;27;20099;-67
2023/09/03 09:09:26;;;;;;;2.03;1.17;;;25.10;97.10;;;;;;4268676;27;20043;-59
2023/09/03 09:11:34;;;;;;;2.83;1.55;;;25.10;97.00;;;;;;4268781;27;20047;-58
2023/09/03 09:13:39;;;;;;;3.78;1.60;;;25.20;97.00;;;;;;4268823;27;20061;-57
2023/09/03 09:15:43;;;;;;;3.20;1.75;;;25.30;97.00;;;;;;4267729;27;20049;-59
2023/09/03 09:17:45;;;;;;;4.75;1.50;;;25.30;97.00;;;;;;4249659;27;20068;-57
2023/09/03 09:19:52;;;;;;;2.50;1.35;;;25.40;97.10;;;;;;4251034;27;20441;-58
2023/09/03 09:21:59;;;;;;;4.50;1.95;;;25.50;96.80;;;;;;4250050;27;20043;-58
2023/09/03 09:24:07;;;;;;;4.25;1.52;;;25.60;96.80;;;;;;4249468;27;20047;-59
2023/09/03 09:26:17;;;;;;;2.92;1.30;;;25.70;96.50;;;;;;4249660;27;20144;-60
2023/09/03 09:28:20;;;;;;;4.85;1.67;;;25.70;96.40;;;;;;4248464;27;20050;-58
2023/09/03 09:30:27;;;;;;;4.88;1.70;;;25.80;96.40;;;;;;4249952;27;20055;-58
2023/09/03 09:32:29;;;;;;;4.13;1.80;;;25.90;96.40;;;;;;4249670;27;20075;-58
2023/09/03 09:34:42;;;;;;;2.40;1.70;;;25.90;95.90;;;;;;4249766;27;20378;-58
2023/09/03 09:36:54;;;;;;;2.17;1.27;;;26.00;96.10;;;;;;4249636;27;20563;-57
2023/09/03 09:39:05;;;;;;;3.22;1.67;;;26.10;96.00;;;;;;4248636;27;20043;-58
2023/09/03 09:41:25;;;;;;;3.47;1.73;;;26.20;96.20;;;;;;4249241;27;20049;-57
2023/09/03 09:43:48;;;;;;;2.63;1.67;;;26.30;95.70;;;;;;4249018;27;20642;-57
2023/09/03 09:45:51;;;;;;;3.00;1.55;;;26.40;95.90;;;;;;4249238;27;20103;-58
2023/09/03 09:48:04;;;;;;;3.95;1.75;;;26.50;95.90;;;;;;4248487;27;20048;-57
2023/09/03 09:50:07;;;;;;;4.65;1.70;;;26.60;95.40;;;;;;4249292;27;20480;-57
2023/09/03 09:52:10;;;;;;;3.83;1.83;;;26.60;95.50;;;;;;4249092;27;20047;-57
2023/09/03 09:54:12;;;;;;;5.00;1.92;;;26.60;95.30;;;;;;4249303;27;20051;-57
2023/09/03 09:56:18;;;;;;;5.20;1.73;;;26.70;95.20;;;;;;4249386;27;20051;-57
2023/09/03 09:58:21;;;;;;;6.47;2.65;;;26.70;95.10;;;;;;4247895;27;20053;-57
2023/09/03 10:00:34;;;;;;;6.07;2.00;;;26.70;95.10;;;;;;4249081;27;20533;-58
2023/09/03 10:02:38;;;;;;;5.80;1.85;;;26.80;94.90;;;;;;4249097;27;20054;-57
2023/09/03 10:04:41;;;;;;;6.95;1.83;;;26.90;95.00;;;;;;4258465;27;20100;-58
2023/09/03 10:06:44;;;;;;;5.40;1.53;;;26.90;95.10;;;;;;4248890;27;20115;-58
2023/09/03 10:08:48;;;;;;;2.72;1.75;;;27.00;94.90;;;;;;4248009;27;20416;-58
2023/09/03 10:10:52;;;;;;;4.22;1.85;;;27.10;94.80;;;;;;4248903;27;20404;-57
2023/09/03 10:12:54;;;;;;;6.45;1.70;;;27.10;94.70;;;;;;4248495;27;20122;-58
2023/09/03 10:14:59;;;;;;;3.55;1.40;;;27.10;94.50;;;;;;4248878;27;20050;-57
2023/09/03 10:17:02;;;;;;;5.38;1.80;;;27.20;94.80;;;;;;4248848;27;20065;-60
2023/09/03 10:19:10;;;;;;;4.03;1.50;;;27.30;94.60;;;;;;4248274;27;20093;-59
2023/09/03 10:21:19;;;;;;;6.57;2.40;;;27.40;94.10;;;;;;4248583;27;20448;-58
2023/09/03 10:23:25;;;;;;;3.67;1.30;;;27.40;93.60;;;;;;4248870;27;20074;-57
2023/09/03 10:25:29;;;;;;;2.92;1.80;;;27.40;93.90;;;;;;4230637;28;20054;-58
2023/09/03 10:27:35;;;;;;;2.88;1.95;;;27.50;93.60;;;;;;4248116;27;20047;-58
2023/09/03 10:29:37;;;;;;;3.17;2.08;;;27.50;93.70;;;;;;4248295;27;20066;-57
2023/09/03 10:31:41;;;;;;;3.88;1.88;;;27.50;93.70;;;;;;4248478;27;20058;-58
2023/09/03 10:33:44;;;;;;;5.90;2.17;;;27.60;93.70;;;;;;4248520;27;20119;-58
2023/09/03 10:36:13;;;;;;;2.95;1.67;;;27.70;93.90;;;;;;4248365;27;20050;-58
2023/09/03 10:38:30;;;;;;;3.53;1.70;;;27.80;93.80;;;;;;4247562;27;20446;-57
2023/09/03 10:40:33;;;;;;;7.72;2.17;;;27.80;93.70;;;;;;4229705;28;20422;-57
2023/09/03 10:42:35;;;;;;;4.72;1.92;;;27.80;93.70;;;;;;4248375;27;20055;-57
2023/09/03 10:44:42;;;;;;;4.63;2.05;;;27.80;93.40;;;;;;4248251;27;20400;-57